Terminal Aerodrome Forecast
Issued by NWS Louisville, KY

Home | Current Version | Previous Version | Text Only | Print | Product List | Glossary On
Versions: 1 2 3 4 5 6 7 8 9 10 11 12 13 14
589
FTUS43 KLMK 241147
TAFLEX
TAF
KLEX 241147Z 2412/2512 VRB03KT 1/4SM FG VV001
     FM241300 27006KT 4SM BR FEW015
     FM241400 29010G16KT P6SM SCT050
     FM250000 29005KT P6SM FEW250=

USA.gov is the U.S. government's official web portal to all federal, state and local government web resources and services.